createdAt,value
2022-10-30T00:01:40.291Z,18.15
2022-10-30T00:04:37.203Z,19.25
2022-10-30T00:07:34.713Z,18.27
2022-10-30T00:10:31.543Z,17.70
2022-10-30T00:13:28.397Z,14.75
2022-10-30T00:16:25.291Z,17.83
2022-10-30T00:19:22.245Z,20.48
2022-10-30T00:22:19.189Z,15.10
2022-10-30T00:25:16.086Z,15.65
2022-10-30T00:28:13.203Z,18.23
2022-10-30T00:31:10.424Z,15.98
2022-10-30T00:34:07.387Z,13.30
2022-10-30T00:37:04.223Z,18.40
2022-10-30T00:40:01.089Z,19.13
2022-10-30T00:42:57.954Z,18.30
2022-10-30T00:45:55.930Z,17.25
2022-10-30T00:49:16.059Z,12.05
2022-10-30T00:52:12.921Z,13.93
2022-10-30T00:55:17.370Z,20.40
2022-10-30T00:58:19.834Z,11.25
2022-10-30T01:01:24.494Z,16.85
2022-10-30T01:04:27.399Z,11.88
2022-10-30T01:07:27.288Z,16.83
2022-10-30T01:10:24.324Z,10.65
2022-10-30T01:13:23.095Z,12.85
2022-10-30T01:16:54.464Z,12.63
2022-10-30T01:20:00.186Z,14.68
2022-10-30T01:23:46.798Z,11.63
2022-10-30T01:27:02.558Z,13.93
2022-10-30T01:30:11.267Z,12.13
2022-10-30T01:33:42.437Z,19.50
2022-10-30T01:36:49.388Z,11.20
2022-10-30T01:39:46.413Z,10.50
2022-10-30T01:42:56.981Z,12.20
2022-10-30T01:46:26.988Z,12.05
2022-10-30T01:50:09.555Z,14.73
2022-10-30T01:53:22.848Z,17.05
2022-10-30T01:56:44.098Z,11.52
2022-10-30T02:00:13.896Z,14.75
2022-10-30T02:03:10.876Z,9.93
2022-10-30T02:06:07.870Z,11.73
2022-10-30T02:09:06.111Z,12.98
2022-10-30T02:12:04.277Z,13.43
2022-10-30T02:15:01.675Z,12.75
2022-10-30T02:17:59.083Z,12.40
2022-10-30T02:20:56.412Z,15.50
2022-10-30T02:23:53.254Z,14.63
2022-10-30T02:26:50.144Z,12.32
2022-10-30T02:29:46.997Z,12.27
2022-10-30T02:32:44.524Z,12.55
2022-10-30T02:35:41.429Z,13.10
2022-10-30T02:38:38.257Z,19.00
2022-10-30T02:41:35.492Z,12.77
2022-10-30T02:44:32.479Z,16.65
2022-10-30T02:47:29.519Z,13.27
2022-10-30T02:50:26.995Z,9.93
2022-10-30T02:53:23.851Z,11.15
2022-10-30T02:56:20.638Z,12.18
2022-10-30T02:59:17.533Z,12.43
2022-10-30T03:02:14.626Z,18.75
2022-10-30T03:05:11.565Z,14.70
2022-10-30T03:08:08.389Z,16.70
2022-10-30T03:11:12.392Z,14.73
2022-10-30T03:14:09.247Z,16.38
2022-10-30T03:17:06.136Z,20.20
2022-10-30T03:20:03.036Z,14.30
2022-10-30T03:22:59.856Z,15.82
2022-10-30T03:25:58.849Z,16.45
2022-10-30T03:28:55.669Z,16.17
2022-10-30T03:31:52.490Z,18.85
2022-10-30T03:34:49.323Z,10.65
2022-10-30T03:37:46.131Z,9.48
2022-10-30T03:40:42.933Z,12.65
2022-10-30T03:43:39.752Z,10.30
2022-10-30T03:46:36.577Z,11.63
2022-10-30T03:49:33.372Z,8.10
2022-10-30T03:52:30.180Z,9.50
2022-10-30T03:55:27.056Z,13.20
2022-10-30T03:58:23.879Z,10.23
2022-10-30T04:01:21.492Z,12.43
2022-10-30T04:04:18.482Z,9.73
2022-10-30T04:07:15.462Z,10.40
2022-10-30T04:10:16.671Z,13.57
2022-10-30T04:13:17.667Z,12.20
2022-10-30T04:16:14.476Z,19.98
2022-10-30T04:19:11.279Z,12.40
2022-10-30T04:22:08.088Z,9.80
2022-10-30T04:25:05.841Z,13.55
2022-10-30T04:28:03.745Z,11.27
2022-10-30T04:31:01.769Z,8.15
2022-10-30T04:33:58.864Z,10.40
2022-10-30T04:36:55.686Z,10.50
2022-10-30T04:39:52.508Z,8.98
2022-10-30T04:42:49.801Z,14.23
2022-10-30T04:45:46.630Z,11.07
2022-10-30T04:48:44.978Z,10.32
2022-10-30T04:51:41.801Z,11.90
2022-10-30T04:54:38.587Z,12.35
2022-10-30T04:57:36.894Z,10.23
2022-10-30T05:00:33.772Z,12.68
2022-10-30T05:03:30.619Z,10.68
2022-10-30T05:06:30.322Z,14.55
2022-10-30T05:09:27.127Z,11.27
2022-10-30T05:12:24.018Z,13.88
2022-10-30T05:15:21.387Z,11.88
2022-10-30T05:18:19.420Z,10.80
2022-10-30T05:21:16.307Z,12.80
2022-10-30T05:24:13.112Z,12.25
2022-10-30T05:27:09.921Z,12.60
2022-10-30T05:30:07.696Z,12.20
2022-10-30T05:33:07.952Z,14.10
2022-10-30T05:36:05.371Z,11.45
2022-10-30T05:39:03.001Z,12.77
2022-10-30T05:41:59.849Z,14.90
2022-10-30T05:45:01.070Z,15.55
2022-10-30T05:48:04.807Z,12.23
2022-10-30T05:51:01.670Z,12.40
2022-10-30T05:53:58.576Z,16.05
2022-10-30T05:56:57.409Z,16.67
2022-10-30T05:59:54.586Z,16.88
2022-10-30T06:02:51.693Z,14.02
2022-10-30T06:05:48.812Z,11.68
2022-10-30T06:08:45.835Z,12.50
2022-10-30T06:11:42.745Z,14.27
2022-10-30T06:14:39.567Z,12.20
2022-10-30T06:17:36.393Z,19.27
2022-10-30T06:20:33.452Z,12.77
2022-10-30T06:23:30.276Z,9.88
2022-10-30T06:26:27.166Z,11.65
2022-10-30T06:29:24.032Z,12.75
2022-10-30T06:32:22.235Z,11.77
2022-10-30T06:35:19.045Z,14.50
2022-10-30T06:38:17.084Z,15.70
2022-10-30T06:41:13.926Z,15.40
2022-10-30T06:44:11.616Z,13.00
2022-10-30T06:47:08.791Z,13.82
2022-10-30T06:50:08.207Z,10.85
2022-10-30T06:53:05.043Z,16.27
2022-10-30T06:56:03.677Z,17.38
2022-10-30T06:59:00.535Z,17.70
2022-10-30T07:02:00.427Z,19.13
2022-10-30T07:04:58.632Z,12.38
2022-10-30T07:07:58.799Z,20.50
2022-10-30T07:10:58.635Z,22.40
2022-10-30T07:13:55.591Z,24.07
2022-10-30T07:16:55.751Z,26.35
2022-10-30T07:19:52.680Z,20.38
2022-10-30T07:22:49.981Z,19.17
2022-10-30T07:25:46.792Z,19.38
2022-10-30T07:28:43.601Z,22.20
2022-10-30T07:31:42.353Z,22.80
2022-10-30T07:34:39.668Z,31.42
2022-10-30T07:37:36.565Z,33.15
2022-10-30T07:40:34.128Z,22.27
2022-10-30T07:43:30.949Z,23.88
2022-10-30T07:46:27.774Z,35.08
2022-10-30T07:49:24.652Z,22.77
2022-10-30T07:52:21.479Z,27.17
2022-10-30T07:55:18.392Z,37.35
2022-10-30T07:58:15.334Z,26.80
2022-10-30T08:01:12.208Z,25.23
2022-10-30T08:04:11.230Z,23.45
2022-10-30T08:07:08.106Z,20.73
2022-10-30T08:10:07.120Z,16.00
2022-10-30T08:13:04.315Z,14.52
2022-10-30T08:16:01.202Z,16.08
2022-10-30T08:18:58.038Z,18.10
2022-10-30T08:21:59.227Z,11.77
2022-10-30T08:24:57.266Z,14.70
2022-10-30T08:27:57.039Z,9.55
2022-10-30T08:30:53.946Z,24.38
2022-10-30T08:33:50.813Z,14.48
2022-10-30T08:36:51.763Z,10.48
2022-10-30T08:39:48.686Z,10.82
2022-10-30T08:42:55.097Z,12.73
2022-10-30T08:45:52.022Z,8.30
2022-10-30T08:48:49.024Z,11.45
2022-10-30T08:51:46.165Z,12.73
2022-10-30T08:54:43.072Z,10.27
2022-10-30T08:57:39.977Z,14.82
2022-10-30T09:00:37.040Z,8.68
2022-10-30T09:03:34.076Z,10.50
2022-10-30T09:06:31.911Z,9.88
2022-10-30T09:09:28.764Z,9.20
2022-10-30T09:12:25.648Z,11.00
2022-10-30T09:15:23.088Z,14.23
2022-10-30T09:18:20.242Z,9.00
2022-10-30T09:21:17.340Z,14.57
2022-10-30T09:24:14.157Z,10.65
2022-10-30T09:27:11.033Z,13.85
2022-10-30T09:30:09.041Z,15.85
2022-10-30T09:33:05.996Z,8.82
2022-10-30T09:36:03.160Z,8.20
2022-10-30T09:39:00.187Z,7.65
2022-10-30T09:42:21.118Z,8.85
2022-10-30T09:45:56.164Z,9.48
2022-10-30T09:49:20.066Z,9.45
2022-10-30T09:52:44.071Z,9.40
2022-10-30T09:56:01.985Z,11.77
2022-10-30T09:59:17.483Z,8.02
2022-10-30T10:02:29.805Z,7.30
2022-10-30T10:05:41.304Z,6.65
2022-10-30T10:08:44.431Z,9.45
2022-10-30T10:11:47.390Z,7.63
2022-10-30T10:14:47.393Z,11.55
2022-10-30T10:17:46.842Z,7.90
2022-10-30T10:20:47.775Z,9.73
2022-10-30T10:23:49.567Z,9.25
2022-10-30T10:26:56.925Z,9.88
2022-10-30T10:30:23.351Z,12.80
2022-10-30T10:34:12.957Z,10.60
2022-10-30T10:37:53.824Z,8.45
2022-10-30T10:41:41.135Z,8.75
2022-10-30T10:45:50.516Z,8.80
2022-10-30T10:49:45.293Z,9.20
2022-10-30T10:53:02.180Z,6.40
2022-10-30T10:56:01.282Z,7.05
2022-10-30T10:59:08.968Z,10.73
2022-10-30T11:02:05.842Z,10.23
2022-10-30T11:05:20.641Z,8.63
2022-10-30T11:08:25.502Z,8.60
2022-10-30T11:11:22.609Z,9.02
2022-10-30T11:14:29.736Z,11.43
2022-10-30T11:17:41.870Z,13.80
2022-10-30T11:21:05.973Z,8.55
2022-10-30T11:24:02.851Z,11.70
2022-10-30T11:27:24.085Z,11.93
2022-10-30T11:30:28.511Z,11.68
2022-10-30T11:33:30.536Z,8.95
2022-10-30T11:36:27.375Z,10.77
2022-10-30T11:39:30.931Z,7.45
2022-10-30T11:42:27.779Z,9.98
2022-10-30T11:45:28.819Z,12.18
2022-10-30T11:48:33.915Z,10.73
2022-10-30T11:51:37.268Z,11.77
2022-10-30T11:54:41.595Z,11.43
2022-10-30T11:57:44.698Z,10.68
2022-10-30T12:00:41.739Z,8.85
2022-10-30T12:03:41.497Z,8.05
2022-10-30T12:06:38.389Z,12.07
2022-10-30T12:09:47.745Z,6.68
2022-10-30T12:12:44.705Z,8.70
2022-10-30T12:15:43.750Z,14.02
2022-10-30T12:18:41.322Z,9.13
2022-10-30T12:21:45.017Z,10.90
2022-10-30T12:24:44.241Z,9.10
2022-10-30T12:27:41.242Z,7.28
2022-10-30T12:31:03.736Z,7.78
2022-10-30T12:34:18.040Z,10.90
2022-10-30T12:37:32.264Z,9.13
2022-10-30T12:40:40.544Z,12.00
2022-10-30T12:43:39.877Z,8.82
2022-10-30T12:46:52.240Z,9.02
2022-10-30T12:49:55.437Z,8.70
2022-10-30T12:53:09.597Z,9.75
2022-10-30T12:56:15.181Z,10.93
2022-10-30T12:59:11.903Z,9.13
2022-10-30T13:02:46.945Z,7.28
2022-10-30T13:05:55.008Z,7.63
2022-10-30T13:09:08.012Z,7.13
2022-10-30T13:12:23.864Z,10.35
2022-10-30T13:15:33.165Z,10.32
2022-10-30T13:18:32.644Z,11.35
2022-10-30T13:22:01.291Z,18.73
2022-10-30T13:25:07.223Z,8.85
2022-10-30T13:28:13.410Z,8.77
2022-10-30T13:31:24.179Z,9.98
2022-10-30T13:34:53.904Z,10.85
2022-10-30T13:38:34.164Z,9.30
2022-10-30T13:42:15.913Z,9.80
2022-10-30T13:45:38.871Z,8.98
2022-10-30T13:49:11.731Z,9.38
2022-10-30T13:52:17.868Z,7.53
2022-10-30T13:55:32.580Z,8.60
2022-10-30T13:59:02.949Z,9.13
2022-10-30T14:02:31.616Z,7.45
2022-10-30T14:05:55.093Z,16.40
2022-10-30T14:09:24.827Z,12.20
2022-10-30T14:12:57.085Z,7.70
2022-10-30T14:16:07.435Z,8.60
2022-10-30T14:19:07.882Z,7.05
2022-10-30T14:22:22.854Z,6.82
2022-10-30T14:25:19.850Z,10.82
2022-10-30T14:28:20.853Z,10.52
2022-10-30T14:31:32.065Z,6.65
2022-10-30T14:34:49.971Z,8.35
2022-10-30T14:37:46.677Z,8.20
2022-10-30T14:40:56.271Z,7.35
2022-10-30T14:44:17.268Z,7.18
2022-10-30T14:47:25.459Z,10.32
2022-10-30T14:50:30.704Z,9.35
2022-10-30T14:53:49.191Z,9.30
2022-10-30T14:56:49.224Z,10.23
2022-10-30T14:59:46.064Z,12.02
2022-10-30T15:03:45.982Z,8.52
2022-10-30T15:06:59.518Z,13.77
2022-10-30T15:10:29.909Z,14.43
2022-10-30T15:13:27.220Z,15.23
2022-10-30T15:16:26.427Z,15.45
2022-10-30T15:19:24.868Z,16.75
2022-10-30T15:22:27.969Z,24.85
2022-10-30T15:25:31.914Z,9.07
2022-10-30T15:28:32.405Z,17.48
2022-10-30T15:31:30.324Z,21.33
2022-10-30T15:34:34.952Z,23.50
2022-10-30T15:37:32.412Z,88.47
2022-10-30T15:40:33.305Z,42.70
2022-10-30T15:43:35.922Z,18.92
2022-10-30T15:46:32.962Z,31.75
2022-10-30T15:49:40.272Z,44.42
2022-10-30T15:52:42.329Z,67.88
2022-10-30T15:55:39.270Z,51.53
2022-10-30T15:58:37.486Z,100.85
2022-10-30T16:01:39.049Z,51.20
2022-10-30T16:04:36.823Z,28.92
2022-10-30T16:07:33.887Z,54.08
2022-10-30T16:10:35.673Z,35.08
2022-10-30T16:13:35.267Z,43.30
2022-10-30T16:16:33.587Z,17.48
2022-10-30T16:19:46.767Z,31.17
2022-10-30T16:22:43.649Z,71.13
2022-10-30T16:25:46.764Z,55.15
2022-10-30T16:28:47.917Z,60.95
2022-10-30T16:31:49.797Z,72.53
2022-10-30T16:34:47.826Z,27.42
2022-10-30T16:37:44.900Z,26.42
2022-10-30T16:40:41.948Z,28.65
2022-10-30T16:43:40.226Z,27.85
2022-10-30T16:47:22.616Z,22.10
2022-10-30T16:50:27.852Z,28.83
2022-10-30T16:53:28.518Z,51.78
2022-10-30T16:59:38.904Z,32.72
2022-10-30T17:02:43.250Z,27.25
2022-10-30T17:05:43.614Z,31.23
2022-10-30T17:08:43.212Z,26.50
2022-10-30T17:12:01.427Z,32.45
2022-10-30T17:15:07.085Z,28.83
2022-10-30T17:18:15.381Z,55.65
2022-10-30T17:21:20.288Z,64.63
2022-10-30T17:24:28.013Z,54.83
2022-10-30T17:27:46.580Z,71.75
2022-10-30T17:30:44.651Z,53.00
2022-10-30T17:33:41.518Z,84.45
2022-10-30T17:36:38.677Z,64.57
2022-10-30T17:39:35.512Z,68.95
2022-10-30T17:42:32.349Z,66.38
2022-10-30T17:45:30.198Z,44.28
2022-10-30T17:48:30.416Z,67.50
2022-10-30T17:51:29.282Z,44.17
2022-10-30T17:54:26.369Z,104.00
2022-10-30T17:57:25.323Z,64.20
2022-10-30T18:00:22.214Z,42.75
2022-10-30T18:03:19.018Z,29.17
2022-10-30T18:06:20.557Z,27.20
2022-10-30T18:09:20.220Z,43.45
2022-10-30T18:12:19.134Z,66.35
2022-10-30T18:15:35.986Z,68.13
2022-10-30T18:18:32.806Z,94.35
2022-10-30T18:21:31.273Z,98.25
2022-10-30T18:24:28.120Z,63.72
2022-10-30T18:27:24.952Z,63.67
2022-10-30T18:30:22.080Z,61.92
2022-10-30T18:33:19.484Z,58.88
2022-10-30T18:36:23.220Z,65.78
2022-10-30T18:39:20.065Z,91.72
2022-10-30T18:42:21.493Z,95.88
2022-10-30T18:45:34.287Z,110.20
2022-10-30T18:48:31.213Z,81.55
2022-10-30T18:51:28.888Z,65.88
2022-10-30T18:54:25.729Z,48.13
2022-10-30T18:57:24.655Z,57.28
2022-10-30T19:00:25.884Z,68.50
2022-10-30T19:03:23.316Z,87.07
2022-10-30T19:06:24.100Z,77.30
2022-10-30T19:12:17.681Z,80.45
2022-10-30T19:15:24.814Z,78.32
2022-10-30T19:18:25.332Z,59.20
2022-10-30T19:21:26.227Z,53.20
2022-10-30T19:24:23.134Z,62.85
2022-10-30T19:27:21.124Z,55.42
2022-10-30T19:30:20.329Z,48.08
2022-10-30T19:33:22.870Z,42.25
2022-10-30T19:36:33.798Z,56.97
2022-10-30T19:39:32.951Z,53.42
2022-10-30T19:42:29.754Z,77.22
2022-10-30T19:45:30.333Z,37.92
2022-10-30T19:48:56.272Z,43.53
2022-10-30T19:51:43.965Z,34.22
2022-10-30T19:54:40.778Z,30.63
2022-10-30T19:57:37.600Z,36.88
2022-10-30T20:00:40.589Z,31.50
2022-10-30T20:03:37.440Z,25.73
2022-10-30T20:06:34.359Z,23.40
2022-10-30T20:09:31.965Z,33.03
2022-10-30T20:12:28.781Z,27.63
2022-10-30T20:15:27.597Z,26.60
2022-10-30T20:18:30.324Z,27.58
2022-10-30T20:21:27.863Z,62.13
2022-10-30T20:24:24.723Z,53.42
2022-10-30T20:27:21.580Z,45.97
2022-10-30T20:30:22.852Z,30.02
2022-10-30T20:33:20.807Z,59.85
2022-10-30T20:36:17.754Z,135.68
2022-10-30T20:39:14.617Z,94.63
2022-10-30T20:42:14.603Z,74.72
2022-10-30T20:45:21.410Z,83.83
2022-10-30T20:48:18.211Z,97.95
2022-10-30T20:51:15.495Z,64.57
2022-10-30T20:54:12.320Z,32.33
2022-10-30T20:57:09.197Z,25.40
2022-10-30T21:00:09.107Z,25.63
2022-10-30T21:03:06.892Z,32.50
2022-10-30T21:06:03.838Z,29.90
2022-10-30T21:09:00.683Z,31.40
2022-10-30T21:11:57.590Z,28.58
2022-10-30T21:14:54.462Z,25.92
2022-10-30T21:17:51.371Z,27.58
2022-10-30T21:20:48.180Z,28.10
2022-10-30T21:23:46.069Z,27.67
2022-10-30T21:26:42.997Z,26.58
2022-10-30T21:29:39.806Z,24.95
2022-10-30T21:32:36.718Z,26.15
2022-10-30T21:35:34.253Z,26.25
2022-10-30T21:38:32.750Z,27.40
2022-10-30T21:41:29.614Z,28.27
2022-10-30T21:44:26.467Z,27.83
2022-10-30T21:47:23.313Z,25.15
2022-10-30T21:50:20.200Z,23.70
2022-10-30T21:53:17.007Z,26.40
2022-10-30T21:56:17.840Z,28.10
2022-10-30T22:02:15.152Z,27.20
2022-10-30T22:05:12.112Z,21.00
2022-10-30T22:08:08.921Z,28.02
2022-10-30T22:11:08.984Z,23.38
2022-10-30T22:14:06.366Z,25.53
2022-10-30T22:17:03.238Z,26.55
2022-10-30T22:20:00.046Z,23.63
2022-10-30T22:22:56.900Z,22.88
2022-10-30T22:26:02.680Z,20.92
2022-10-30T22:29:00.880Z,22.17
2022-10-30T22:31:57.714Z,20.10
2022-10-30T22:34:56.587Z,17.02
2022-10-30T22:37:53.395Z,13.80
2022-10-30T22:40:50.220Z,16.17
2022-10-30T22:43:48.617Z,17.67
2022-10-30T22:46:45.859Z,18.27
2022-10-30T22:49:42.664Z,10.52
2022-10-30T22:52:39.456Z,15.13
2022-10-30T22:55:36.271Z,14.15
2022-10-30T22:58:33.090Z,17.75
2022-10-30T23:01:33.114Z,19.15
2022-10-30T23:04:29.986Z,13.40
2022-10-30T23:07:26.786Z,14.65
2022-10-30T23:10:23.603Z,16.80
2022-10-30T23:16:26.087Z,13.60
2022-10-30T23:19:22.905Z,14.75
2022-10-30T23:22:19.716Z,11.40
2022-10-30T23:25:16.657Z,12.52
2022-10-30T23:28:13.542Z,14.32
2022-10-30T23:31:29.235Z,13.45
2022-10-30T23:34:26.055Z,13.90
2022-10-30T23:37:23.198Z,12.98
2022-10-30T23:40:20.839Z,16.63
2022-10-30T23:43:17.692Z,10.90
2022-10-30T23:46:14.513Z,11.85
2022-10-30T23:49:11.605Z,10.07
2022-10-30T23:52:08.424Z,10.27
2022-10-30T23:55:05.934Z,14.82
2022-10-30T23:58:03.146Z,12.48
